Latest Weather Observations for Williamtown

IDN60901

Issued at 10:21 am EST Wednesday 28 September 2022 (issued every 10 minutes, with the page automatically refreshed every 10 minutes)

About weather observations | Map of Sydney area stations | Latest observations for Sydney area | Other Formats
Station Details ID: 061078 Name: WILLIAMTOWN RAAF Lat: -32.79 Lon: 151.84 Height: 7.5 m
Data from the previous 72 hours. | See also: Recent months at Williamtown
Date/Time
EST
Temp
°C
App
Temp
°C
Dew
Point
°C
Rel
Hum
%
Delta-T
°C
Wind Press
QNH
hPa
Press
MSL
hPa
Rain since
9am
mm
Dir  Spd
km/h
Gust
km/h
Spd
kts
Gust
kts
28/10:00am 19.0 15.6 15.7 81 2.0 WNW 28 35 15 19 1011.2 1011.1 0.0
28/09:30am 17.9 16.0 15.2 84 1.6 NW 19 28 10 15 1011.5 1011.4 0.0
28/09:00am 16.5 14.5 15.4 93 0.6 NW 20 26 11 14 1011.6 1011.5 0.2
28/08:30am 16.6 15.8 16.0 96 0.4 WNW 15 20 8 11 1011.6 1011.5 0.0
28/08:00am 15.2 15.7 15.0 99 0.1 NW 6 11 3 6 1011.6 1011.5 0.0
28/07:30am 14.2 13.5 14.2 100 0.0 NNW 11 17 6 9 1012.0 1011.9 0.0
28/07:00am 13.8 14.2 13.8 100 0.0 NNW 4 9 2 5 1011.8 1011.7 0.0
28/06:30am 13.4 12.8 13.4 100 0.0 N 9 11 5 6 1011.6 1011.5 0.0
28/06:00am 13.2 14.2 13.2 100 0.0 CALM 0 0 0 0 1011.0 1010.9 0.0
28/05:30am 12.9 12.1 12.9 100 0.0 W 9 11 5 6 1010.8 1010.7 0.0
28/05:00am 12.7 11.1 12.7 100 0.0 WNW 13 15 7 8 1010.6 1010.5 0.0
28/04:56am 12.6 10.9 12.6 100 0.0 WNW 13 15 7 8 1010.6 1010.5 0.0
28/04:36am 12.6 10.6 12.6 100 0.0 WNW 15 17 8 9 1010.2 1010.1 0.0
28/04:33am 12.6 10.6 12.6 100 0.0 WNW 15 17 8 9 1010.0 1009.9 0.0
28/04:30am 12.4 10.7 12.4 100 0.0 NW 13 17 7 9 1010.0 1009.9 0.0
28/04:13am 12.4 10.7 12.4 100 0.0 WNW 13 17 7 9 1009.7 1009.6 0.0
28/04:00am 11.8 11.2 11.8 100 0.0 NW 6 17 3 9 1009.5 1009.4 0.0
28/03:53am 12.1 12.8 12.1 100 0.0 CALM 0 0 0 0 1009.2 1009.1 0.0
28/03:30am 12.4 13.2 12.4 100 0.0 CALM 0 0 0 0 1009.1 1009.0 0.0
28/03:00am 12.6 12.3 12.6 100 0.0 W 6 11 3 6 1009.1 1009.0 0.0
28/02:30am 13.3 13.2 13.3 100 0.0 SSE 6 11 3 6 1008.9 1008.8 0.0
28/02:00am 14.6 15.9 14.1 97 0.3 CALM 0 2 0 1 1009.4 1009.3 0.0
28/01:30am 15.4 15.3 14.9 97 0.3 NNE 9 13 5 7 1009.8 1009.7 0.0
28/01:00am 15.3 14.5 15.0 98 0.2 NE 13 17 7 9 1010.0 1009.9 0.0
28/12:30am 15.2 15.2 15.2 100 0.0 NE 9 15 5 8 1010.4 1010.3 0.0
28/12:00am 15.4 15.3 14.9 97 0.3 NNE 9 13 5 7 1010.6 1010.5 0.0
 
Date/Time
EST
Temp
°C
App
Temp
°C
Dew
Point
°C
Rel
Hum
%
Delta-T
°C
Wind Press
QNH
hPa
Press
MSL
hPa
Rain since
9am
mm
Dir  Spd
km/h
Gust
km/h
Spd
kts
Gust
kts
27/11:30pm 15.7 15.4 15.5 99 0.1 NE 11 15 6 8 1010.9 1010.8 0.0
27/11:00pm 15.5 15.4 14.9 96 0.3 NNE 9 11 5 6 1011.0 1010.9 0.0
27/10:30pm 16.6 16.1 15.8 95 0.5 NE 13 20 7 11 1011.0 1010.9 0.0
27/10:00pm 16.8 16.3 15.8 94 0.6 NE 13 19 7 10 1011.3 1011.2 0.0
27/09:30pm 17.1 15.9 16.0 93 0.6 NE 17 26 9 14 1011.4 1011.3 0.0
27/09:00pm 16.8 16.4 16.3 97 0.3 NE 13 19 7 10 1011.8 1011.7 0.0
27/08:30pm 16.6 16.6 16.3 98 0.2 ENE 11 19 6 10 1012.2 1012.1 0.0
27/08:00pm 16.8 16.9 16.5 98 0.2 ENE 11 17 6 9 1012.4 1012.3 0.0
27/07:30pm 16.7 16.8 16.4 98 0.2 NNE 11 15 6 8 1012.2 1012.1 0.0
27/07:00pm 16.9 16.8 16.1 95 0.5 NE 11 15 6 8 1012.0 1011.9 0.0
27/06:30pm 17.0 17.0 15.3 90 1.0 ENE 9 13 5 7 1012.0 1011.9 0.0
27/06:00pm 17.6 17.2 15.2 86 1.4 ENE 11 15 6 8 1011.8 1011.7 0.0
27/05:30pm 18.5 18.3 14.8 79 2.1 ENE 9 15 5 8 1011.8 1011.7 0.0
27/05:00pm 19.2 18.2 14.5 74 2.7 ENE 13 19 7 10 1011.4 1011.3 0.0
27/04:30pm 19.7 17.8 12.9 65 3.8 E 15 22 8 12 1011.3 1011.2 0.0
27/04:00pm 19.7 17.0 11.7 60 4.4 E 17 24 9 13 1011.3 1011.2 0.0
27/03:30pm 20.3 17.1 11.2 56 5.0 ESE 19 20 10 11 1011.4 1011.3 0.0
27/03:00pm 19.9 17.7 12.2 61 4.3 SSE 15 17 8 9 1012.1 1012.0 0.0
27/02:30pm 20.1 18.7 12.3 61 4.4 S 11 15 6 8 1012.3 1012.2 0.0
27/02:00pm 21.0 20.5 11.9 56 5.1 S 6 11 3 6 1012.5 1012.4 0.0
27/01:30pm 21.0 19.9 11.9 56 5.1 SW 9 11 5 6 1012.7 1012.6 0.0
27/01:00pm 20.5 19.8 12.0 58 4.7 SE 7 11 4 6 1013.0 1012.9 0.0
27/12:30pm 19.7 18.8 11.2 58 4.7 NW 7 11 4 6 1013.2 1013.1 0.0
27/12:00pm 18.6 17.5 11.9 65 3.7 NW 9 13 5 7 1013.6 1013.5 0.0
27/11:30am 18.3 16.4 11.8 66 3.6 NW 13 19 7 10 1014.0 1013.9 0.0
27/11:00am 17.3 17.2 13.4 78 2.2 NNW 6 9 3 5 1014.0 1013.9 0.0
27/10:30am 16.4 16.3 13.3 82 1.7 N 6 9 3 5 1014.2 1014.1 0.0
27/10:00am 15.9 15.1 13.0 83 1.6 NNW 9 11 5 6 1014.6 1014.5 0.0
27/09:30am 15.4 13.6 12.2 81 1.7 WNW 13 17 7 9 1015.0 1014.9 0.0
27/09:00am 14.8 13.0 12.1 84 1.5 WNW 13 19 7 10 1015.3 1015.2 0.0
27/08:30am 14.2 11.2 12.6 90 0.9 WNW 20 26 11 14 1015.4 1015.3 0.0
27/08:00am 14.6 12.9 13.5 93 0.6 WNW 15 20 8 11 1015.2 1015.1 0.0
27/07:30am 13.8 12.1 13.5 98 0.2 NW 15 20 8 11 1015.0 1014.9 0.0
27/07:00am 13.0 11.1 13.0 100 0.0 NW 15 19 8 10 1014.8 1014.7 0.0
27/06:30am 12.5 12.0 12.5 100 0.0 WNW 7 11 4 6 1014.5 1014.4 0.0
27/06:00am 10.9 10.8 10.9 100 0.0 NW 2 7 1 4 1014.4 1014.3 0.0
27/05:30am 11.6 12.1 11.6 100 0.0 CALM 0 0 0 0 1013.9 1013.8 0.0
27/05:00am 11.5 10.6 11.5 100 0.0 NW 7 9 4 5 1013.8 1013.7 0.0
27/04:30am 11.4 11.8 11.4 100 0.0 CALM 0 0 0 0 1013.5 1013.4 0.0
27/04:00am 12.0 11.3 12.0 100 0.0 NW 7 9 4 5 1013.4 1013.3 0.0
27/03:30am 12.1 11.0 12.1 100 0.0 NW 9 13 5 7 1013.5 1013.4 0.0
27/03:00am 12.1 11.0 12.1 100 0.0 WNW 9 15 5 8 1013.6 1013.5 0.0
27/02:30am 12.6 13.4 12.6 100 0.0 CALM 0 0 0 0 1013.6 1013.5 0.0
27/02:00am 11.6 12.1 11.6 100 0.0 CALM 0 7 0 4 1014.0 1013.9 0.0
27/01:30am 12.7 12.4 12.7 100 0.0 NNE 6 7 3 4 1014.1 1014.0 0.0
27/01:00am 11.5 11.5 11.3 99 0.1 NW 2 9 1 5 1014.5 1014.4 0.0
27/12:30am 13.2 12.8 13.0 99 0.1 NNE 7 9 4 5 1014.6 1014.5 0.0
27/12:00am 13.4 13.6 13.2 99 0.1 NNE 4 7 2 4 1014.8 1014.7 0.0
 
Date/Time
EST
Temp
°C
App
Temp
°C
Dew
Point
°C
Rel
Hum
%
Delta-T
°C
Wind Press
QNH
hPa
Press
MSL
hPa
Rain since
9am
mm
Dir  Spd
km/h
Gust
km/h
Spd
kts
Gust
kts
26/11:30pm 13.8 14.6 13.8 100 0.0 N 2 7 1 4 1015.1 1015.0 0.0
26/11:00pm 13.6 14.6 13.1 97 0.3 CALM 0 0 0 0 1015.3 1015.2 0.0
26/10:30pm 15.0 16.1 14.5 97 0.3 NE 2 6 1 3 1015.4 1015.3 0.0
26/10:00pm 15.4 16.9 14.6 95 0.5 CALM 0 6 0 3 1015.6 1015.5 0.0
26/09:30pm 15.9 17.1 14.9 94 0.6 E 2 7 1 4 1015.7 1015.6 0.0
26/09:00pm 16.1 17.3 15.0 93 0.6 ENE 2 6 1 3 1015.9 1015.8 0.0
26/08:30pm 16.3 16.7 14.8 91 0.9 ENE 6 9 3 5 1016.0 1015.9 0.0
26/08:00pm 16.5 16.7 14.7 89 1.0 NE 7 11 4 6 1016.0 1015.9 0.0
26/07:30pm 16.6 16.6 15.1 91 0.9 NE 9 13 5 7 1015.9 1015.8 0.0
26/07:00pm 16.7 16.7 15.1 90 0.9 NE 9 13 5 7 1015.6 1015.5 0.0
26/06:30pm 16.9 16.1 15.1 89 1.0 ENE 13 15 7 8 1015.2 1015.1 0.0
26/06:00pm 17.2 16.8 15.2 88 1.2 E 11 15 6 8 1015.0 1014.9 0.0
26/05:30pm 17.4 16.5 14.9 85 1.4 ESE 13 17 7 9 1015.2 1015.1 0.0
26/05:00pm 17.8 16.3 14.1 79 2.1 SE 15 17 8 9 1015.0 1014.9 0.0
26/04:30pm 17.9 15.7 13.4 75 2.5 SE 17 19 9 10 1014.9 1014.8 0.0
26/04:00pm 18.8 17.2 13.9 73 2.8 SE 15 19 8 10 1014.7 1014.6 0.0
26/03:30pm 19.3 17.3 13.9 71 3.1 ESE 17 20 9 11 1014.6 1014.5 0.0
26/03:00pm 19.0 17.0 13.8 72 3.0 SE 17 20 9 11 1014.6 1014.5 0.0
26/02:30pm 19.1 17.0 13.7 71 3.1 ESE 17 22 9 12 1014.8 1014.7 0.0
26/02:00pm 19.3 19.3 14.3 73 2.9 SSE 7 13 4 7 1015.0 1014.9 0.0
26/01:30pm 18.6 18.7 13.9 74 2.7 SE 6 9 3 5 1015.5 1015.4 0.0
26/01:00pm 18.0 17.3 13.3 74 2.6 SSE 9 13 5 7 1015.9 1015.8 0.0
26/12:30pm 17.8 16.9 12.7 72 2.8 SE 9 13 5 7 1016.0 1015.9 0.0
26/12:00pm 17.6 16.2 12.1 70 3.0 SSE 11 15 6 8 1016.4 1016.3 0.0
26/11:30am 18.3 17.0 12.5 69 3.2 SE 11 15 6 8 1016.9 1016.8 0.0
26/11:00am 18.4 18.4 13.7 74 2.7 NE 6 13 3 7 1017.0 1016.9 0.0
26/10:30am 18.1 17.8 13.4 74 2.7 S 7 13 4 7 1017.0 1016.9 0.0
26/10:00am 17.1 16.5 13.4 79 2.1 WSW 9 11 5 6 1017.4 1017.3 0.0
26/09:30am 17.3 18.1 14.9 86 1.4 SSW 4 9 2 5 1017.4 1017.3 0.0
26/09:00am 16.1 16.1 14.1 88 1.1 WNW 7 11 4 6 1017.6 1017.5 0.2
26/08:33am 14.5 13.1 13.5 94 0.6 WNW 13 15 7 8 1017.7 1017.6 0.2
26/08:30am 14.2 12.7 13.1 93 0.6 WNW 13 15 7 8 1017.8 1017.7 0.2
26/08:00am 12.7 10.9 12.1 96 0.3 NW 13 17 7 9 1017.3 1017.2 0.2
26/07:30am 12.1 10.2 11.8 98 0.2 WNW 13 15 7 8 1017.1 1017.0 0.2
26/07:00am 11.6 10.0 11.6 100 0.0 NW 11 13 6 7 1017.1 1017.0 0.2
26/06:30am 11.3 9.6 11.3 100 0.0 NW 11 13 6 7 1017.0 1016.9 0.2
26/06:00am 10.1 7.7 10.1 100 0.0 WNW 13 15 7 8 1016.9 1016.8 0.2
26/05:30am 10.1 8.1 10.1 100 0.0 NW 11 15 6 8 1016.8 1016.7 0.2
26/05:00am 10.2 8.2 10.2 100 0.0 NW 11 13 6 7 1016.5 1016.4 0.0
26/04:30am 10.2 8.2 10.2 100 0.0 NW 11 15 6 8 1016.3 1016.2 0.0
26/04:04am 10.1 8.1 10.1 100 0.0 WNW 11 15 6 8 1016.1 1016.0 0.0
26/04:01am 10.1 8.1 10.1 100 0.0 WNW 11 15 6 8 1016.1 1016.0 0.0
26/04:00am 10.1 8.1 10.1 100 0.0 WNW 11 15 6 8 1016.2 1016.1 0.0
26/03:47am 10.6 8.7 10.6 100 0.0 NW 11 13 6 7 1016.0 1015.9 0.0
26/03:30am 10.9 9.9 10.9 100 0.0 NW 7 11 4 6 1015.8 1015.7 0.0
26/03:00am 10.7 9.2 10.7 100 0.0 NW 9 13 5 7 1016.0 1015.9 0.0
26/02:42am 10.8 8.6 10.8 100 0.0 NW 13 15 7 8 1016.0 1015.9 0.0
26/02:39am 10.8 8.6 10.8 100 0.0 NW 13 15 7 8 1015.9 1015.8 0.0
26/02:36am 10.4 8.5 10.4 100 0.0 NW 11 15 6 8 1015.9 1015.8 0.0
26/02:30am 9.7 8.0 9.7 100 0.0 NNW 9 11 5 6 1015.9 1015.8 0.0
26/02:00am 11.1 11.1 11.1 100 0.0 NW 2 9 1 5 1016.3 1016.2 0.0
26/01:30am 10.1 10.2 10.1 100 0.0 CALM 0 0 0 0 1016.7 1016.6 0.0
26/01:00am 10.0 10.1 10.0 100 0.0 CALM 0 0 0 0 1017.0 1016.9 0.0
26/12:30am 10.6 10.8 10.4 99 0.1 CALM 0 0 0 0 1016.6 1016.5 0.0
26/12:00am 11.9 12.4 11.7 99 0.1 CALM 0 0 0 0 1016.6 1016.5 0.0
 
Date/Time
EST
Temp
°C
App
Temp
°C
Dew
Point
°C
Rel
Hum
%
Delta-T
°C
Wind Press
QNH
hPa
Press
MSL
hPa
Rain since
9am
mm
Dir  Spd
km/h
Gust
km/h
Spd
kts
Gust
kts
25/11:30pm 11.8 12.3 11.5 98 0.2 CALM 0 0 0 0 1016.9 1016.8 0.0
25/11:00pm 11.7 12.1 11.2 97 0.3 CALM 0 0 0 0 1017.0 1016.9 0.0
25/10:30pm 12.3 12.9 11.8 97 0.3 CALM 0 0 0 0 1017.0 1016.9 0.0
25/10:00pm 13.2 12.9 13.2 100 0.0 E 7 9 4 5 1016.9 1016.8 0.0
25/09:30pm 12.2 12.6 11.4 95 0.4 CALM 0 0 0 0 1016.8 1016.7 0.0
25/09:00pm 13.3 14.0 12.2 93 0.6 CALM 0 0 0 0 1016.7 1016.6 0.0
25/08:30pm 14.6 15.5 13.0 90 0.9 CALM 0 7 0 4 1016.5 1016.4 0.0
25/08:00pm 15.0 14.9 13.2 89 1.0 NE 6 9 3 5 1016.1 1016.0 0.0
25/07:30pm 15.2 14.4 12.9 86 1.3 NE 9 11 5 6 1015.8 1015.7 0.0
25/07:00pm 15.7 14.5 12.8 83 1.6 ENE 11 17 6 9 1015.2 1015.1 0.0
25/06:30pm 15.8 14.5 12.5 81 1.8 ENE 11 13 6 7 1014.8 1014.7 0.0
25/06:00pm 16.5 14.8 12.5 77 2.2 ENE 13 17 7 9 1014.5 1014.4 0.0
25/05:30pm 17.5 15.9 11.5 68 3.3 E 11 17 6 9 1014.5 1014.4 0.0
25/05:00pm 18.2 16.1 11.3 64 3.8 ESE 13 20 7 11 1014.2 1014.1 0.0
25/04:30pm 18.6 15.6 11.9 65 3.7 ESE 19 24 10 13 1013.8 1013.7 0.0
25/04:00pm 19.0 16.0 12.0 64 3.9 ESE 19 24 10 13 1013.8 1013.7 0.0
25/03:30pm 19.4 16.1 11.7 61 4.2 ESE 20 26 11 14 1013.7 1013.6 0.0
25/03:00pm 20.3 18.3 11.5 57 4.9 SSW 13 24 7 13 1013.7 1013.6 0.0
25/02:30pm 21.6 18.3 6.3 37 7.7 W 13 24 7 13 1013.8 1013.7 0.0
25/02:00pm 21.4 16.6 4.5 33 8.2 W 19 30 10 16 1014.1 1014.0 0.0
25/01:30pm 21.2 17.5 7.8 42 6.9 WNW 17 28 9 15 1014.3 1014.2 0.0
25/01:00pm 21.0 16.8 7.3 41 7.0 WNW 19 28 10 15 1014.7 1014.6 0.0
25/12:30pm 20.3 16.8 8.9 48 6.0 W 17 30 9 16 1015.0 1014.9 0.0
25/12:00pm 20.4 15.4 6.4 40 7.0 WNW 22 30 12 16 1015.3 1015.2 0.0
25/11:30am 19.6 15.3 8.0 47 6.0 WNW 20 32 11 17 1015.6 1015.5 0.0
25/11:00am 19.5 15.9 9.7 53 5.2 WNW 19 26 10 14 1016.1 1016.0 0.0
25/10:30am 18.4 15.3 8.9 54 4.9 NW 15 24 8 13 1016.3 1016.2 0.0

Latest Capital City Observations: Canberra | Sydney | Melbourne | Brisbane | Adelaide | Perth | Hobart | Darwin

Other formats

Comma delimited format used in spreadsheet applications
http://www.bom.gov.au/fwo/IDN60901/IDN60901.94776.axf

JavaScript Object Notation format (JSON) in row-major order
http://www.bom.gov.au/fwo/IDN60901/IDN60901.94776.json

Data quality

Most of these data are generated automatically and are frequently updated. Quality checks on data are not normally performed. It is possible for incorrect values to appear. Refer to information at About Latest Weather Observations and please check the disclaimer before using these data.